createdAt,value
2018-05-26T00:00:12.328Z,3.77
2018-05-26T00:02:39.776Z,3.33
2018-05-26T00:05:07.231Z,3.47
2018-05-26T00:07:34.693Z,3.57
2018-05-26T00:10:02.149Z,2.90
2018-05-26T00:12:29.612Z,5.23
2018-05-26T00:14:57.064Z,3.00
2018-05-26T00:17:24.523Z,2.90
2018-05-26T00:19:51.968Z,3.23
2018-05-26T00:22:19.427Z,3.57
2018-05-26T00:24:46.884Z,2.70
2018-05-26T00:27:14.340Z,3.13
2018-05-26T00:29:41.784Z,3.20
2018-05-26T00:32:10.015Z,2.80
2018-05-26T00:34:37.464Z,3.07
2018-05-26T00:37:04.924Z,2.97
2018-05-26T00:39:32.404Z,3.60
2018-05-26T00:41:59.860Z,2.63
2018-05-26T00:44:27.312Z,3.23
2018-05-26T00:46:54.767Z,3.00
2018-05-26T00:49:22.212Z,2.53
2018-05-26T00:51:49.664Z,3.00
2018-05-26T00:54:17.125Z,2.87
2018-05-26T00:56:44.581Z,3.53
2018-05-26T00:59:12.033Z,2.90
2018-05-26T01:01:39.501Z,2.43
2018-05-26T01:04:06.967Z,3.17
2018-05-26T01:06:34.424Z,2.93
2018-05-26T01:09:01.885Z,2.73
2018-05-26T01:11:29.344Z,3.00
2018-05-26T01:13:56.805Z,2.70
2018-05-26T01:16:24.268Z,2.57
2018-05-26T01:18:51.724Z,3.33
2018-05-26T01:21:19.172Z,3.20
2018-05-26T01:23:46.624Z,3.00
2018-05-26T01:26:14.088Z,2.60
2018-05-26T01:28:41.543Z,2.63
2018-05-26T01:31:09.008Z,2.67
2018-05-26T01:33:36.460Z,2.70
2018-05-26T01:36:03.916Z,2.70
2018-05-26T01:38:31.375Z,2.77
2018-05-26T01:40:58.832Z,3.10
2018-05-26T01:43:26.292Z,2.87
2018-05-26T01:45:53.747Z,2.90
2018-05-26T01:48:21.204Z,3.37
2018-05-26T01:50:48.644Z,2.87
2018-05-26T01:53:16.116Z,3.30
2018-05-26T01:55:43.570Z,2.30
2018-05-26T01:58:11.029Z,2.57
2018-05-26T02:00:38.487Z,2.63
2018-05-26T02:03:05.948Z,3.03
2018-05-26T02:05:33.403Z,2.63
2018-05-26T02:10:34.825Z,2.53
2018-05-26T02:13:02.276Z,2.43
2018-05-26T02:15:30.483Z,2.63
2018-05-26T02:17:57.955Z,2.63
2018-05-26T02:20:25.411Z,2.90
2018-05-26T02:22:52.880Z,2.60
2018-05-26T02:25:20.332Z,2.80
2018-05-26T02:27:47.798Z,2.60
2018-05-26T02:30:15.265Z,2.33
2018-05-26T02:32:44.243Z,2.90
2018-05-26T02:35:11.703Z,2.67
2018-05-26T02:37:39.160Z,2.40
2018-05-26T02:40:06.621Z,2.77
2018-05-26T02:42:34.079Z,2.60
2018-05-26T02:45:01.529Z,3.00
2018-05-26T02:47:28.997Z,2.50
2018-05-26T02:49:56.444Z,2.80
2018-05-26T02:52:23.913Z,2.60
2018-05-26T02:54:51.356Z,2.47
2018-05-26T02:57:18.816Z,2.60
2018-05-26T02:59:46.275Z,3.03
2018-05-26T03:02:14.495Z,2.40
2018-05-26T03:04:48.271Z,2.70
2018-05-26T03:07:21.443Z,2.60
2018-05-26T03:09:54.654Z,2.53
2018-05-26T03:12:27.907Z,2.40
2018-05-26T03:14:54.874Z,2.40
2018-05-26T03:17:28.271Z,2.97
2018-05-26T03:19:55.708Z,2.90
2018-05-26T03:22:23.937Z,2.53
2018-05-26T03:24:51.376Z,2.37
2018-05-26T03:27:18.848Z,2.57
2018-05-26T03:29:46.320Z,2.53
2018-05-26T03:32:14.532Z,2.57
2018-05-26T03:34:41.999Z,2.20
2018-05-26T03:37:09.431Z,3.30
2018-05-26T03:39:36.880Z,2.97
2018-05-26T03:42:04.329Z,2.90
2018-05-26T03:44:32.559Z,3.13
2018-05-26T03:47:00.773Z,2.10
2018-05-26T03:49:29.008Z,2.87
2018-05-26T03:51:56.457Z,2.97
2018-05-26T03:54:35.751Z,2.60
2018-05-26T03:57:15.793Z,3.63
2018-05-26T03:59:52.918Z,2.50
2018-05-26T04:02:20.376Z,2.63
2018-05-26T04:04:48.651Z,2.50
2018-05-26T04:07:16.869Z,2.40
2018-05-26T04:09:44.330Z,2.40
2018-05-26T04:12:12.536Z,2.50
2018-05-26T04:14:40.776Z,2.90
2018-05-26T04:17:08.236Z,2.30
2018-05-26T04:19:35.696Z,2.50
2018-05-26T04:22:03.151Z,2.60
2018-05-26T04:24:32.120Z,2.93
2018-05-26T04:26:59.577Z,2.70
2018-05-26T04:29:27.045Z,2.20
2018-05-26T04:31:54.495Z,2.43
2018-05-26T04:34:21.951Z,2.37
2018-05-26T04:36:49.411Z,3.20
2018-05-26T04:39:16.888Z,2.23
2018-05-26T04:41:44.343Z,2.40
2018-05-26T04:44:11.808Z,2.20
2018-05-26T04:46:40.771Z,2.80
2018-05-26T04:49:08.996Z,2.83
2018-05-26T04:51:37.225Z,2.60
2018-05-26T04:54:04.687Z,2.60
2018-05-26T04:56:32.153Z,2.60
2018-05-26T04:59:01.129Z,2.33
2018-05-26T05:01:28.591Z,2.00
2018-05-26T05:03:56.056Z,2.50
2018-05-26T05:06:23.506Z,2.33
2018-05-26T05:08:50.959Z,2.60
2018-05-26T05:11:19.175Z,2.23
2018-05-26T05:13:46.644Z,2.47
2018-05-26T05:16:14.847Z,2.40
2018-05-26T05:18:43.080Z,2.47
2018-05-26T05:21:10.543Z,2.63
2018-05-26T05:23:38.008Z,2.40
2018-05-26T05:26:06.216Z,2.33
2018-05-26T05:28:34.438Z,2.33
2018-05-26T05:31:01.888Z,2.67
2018-05-26T05:33:29.346Z,2.30
2018-05-26T05:35:56.811Z,2.20
2018-05-26T05:38:24.265Z,2.47
2018-05-26T05:40:51.715Z,2.40
2018-05-26T05:43:19.172Z,2.67
2018-05-26T05:45:46.640Z,2.40
2018-05-26T05:48:15.599Z,2.10
2018-05-26T05:50:43.073Z,2.57
2018-05-26T05:53:10.524Z,2.10
2018-05-26T05:55:37.980Z,4.30
2018-05-26T05:58:05.452Z,2.30
2018-05-26T06:00:32.931Z,2.30
2018-05-26T06:03:00.404Z,2.50
2018-05-26T06:05:28.640Z,2.67
2018-05-26T06:07:56.095Z,2.50
2018-05-26T06:10:23.565Z,2.17
2018-05-26T06:12:51.021Z,2.27
2018-05-26T06:15:18.532Z,2.30
2018-05-26T06:17:45.979Z,2.80
2018-05-26T06:20:13.500Z,2.47
2018-05-26T06:22:40.969Z,2.10
2018-05-26T06:25:09.192Z,2.40
2018-05-26T06:27:36.664Z,2.40
2018-05-26T06:30:04.108Z,2.80
2018-05-26T06:32:31.561Z,2.17
2018-05-26T06:34:59.015Z,3.13
2018-05-26T06:37:26.460Z,2.10
2018-05-26T06:39:53.908Z,4.63
2018-05-26T06:42:22.123Z,2.30
2018-05-26T06:44:49.590Z,2.17
2018-05-26T06:47:17.795Z,2.00
2018-05-26T06:49:45.259Z,2.10
2018-05-26T06:52:12.723Z,1.77
2018-05-26T06:54:40.946Z,2.10
2018-05-26T06:57:08.389Z,2.03
2018-05-26T06:59:35.843Z,2.40
2018-05-26T07:02:03.305Z,2.30
2018-05-26T07:04:30.772Z,2.00
2018-05-26T07:06:58.233Z,2.10
2018-05-26T07:09:25.686Z,2.00
2018-05-26T07:11:53.143Z,2.53
2018-05-26T07:14:20.606Z,2.20
2018-05-26T07:16:48.063Z,2.30
2018-05-26T07:19:15.519Z,2.10
2018-05-26T07:21:42.980Z,3.67
2018-05-26T07:24:11.198Z,2.60
2018-05-26T07:26:38.647Z,2.27
2018-05-26T07:29:06.102Z,2.37
2018-05-26T07:31:33.563Z,2.10
2018-05-26T07:34:01.025Z,2.80
2018-05-26T07:36:28.492Z,2.00
2018-05-26T07:38:56.712Z,2.70
2018-05-26T07:41:24.178Z,2.60
2018-05-26T07:43:51.631Z,2.40
2018-05-26T07:46:19.109Z,2.10
2018-05-26T07:48:47.314Z,2.50
2018-05-26T07:51:14.777Z,2.40
2018-05-26T07:53:42.992Z,2.30
2018-05-26T07:56:10.462Z,2.40
2018-05-26T07:58:37.921Z,2.13
2018-05-26T08:01:05.407Z,2.40
2018-05-26T08:03:32.897Z,2.20
2018-05-26T08:06:01.135Z,2.33
2018-05-26T08:08:28.579Z,2.33
2018-05-26T08:10:56.090Z,2.10
2018-05-26T08:13:23.503Z,1.83
2018-05-26T08:15:50.968Z,2.20
2018-05-26T08:18:18.519Z,1.87
2018-05-26T08:20:45.976Z,2.10
2018-05-26T08:23:13.444Z,2.27
2018-05-26T08:25:40.891Z,2.10
2018-05-26T08:28:08.348Z,2.10
2018-05-26T08:30:35.813Z,2.20
2018-05-26T08:33:03.264Z,1.83
2018-05-26T08:35:30.726Z,2.10
2018-05-26T08:37:58.204Z,2.20
2018-05-26T08:40:25.651Z,2.20
2018-05-26T08:42:53.101Z,1.83
2018-05-26T08:45:20.568Z,2.00
2018-05-26T08:47:48.023Z,1.83
2018-05-26T08:50:15.483Z,1.80
2018-05-26T08:52:42.948Z,2.20
2018-05-26T08:55:11.173Z,2.10
2018-05-26T08:57:38.631Z,1.77
2018-05-26T09:00:06.088Z,2.20
2018-05-26T09:02:33.552Z,1.90
2018-05-26T09:05:01.012Z,1.93
2018-05-26T09:07:28.476Z,1.97
2018-05-26T09:09:56.696Z,1.63
2018-05-26T09:12:24.929Z,1.90
2018-05-26T09:14:52.425Z,1.70
2018-05-26T09:17:20.600Z,1.80
2018-05-26T09:19:48.829Z,3.23
2018-05-26T09:22:17.057Z,1.70
2018-05-26T09:24:45.293Z,2.87
2018-05-26T09:27:12.760Z,1.90
2018-05-26T09:29:40.203Z,1.60
2018-05-26T09:32:07.669Z,1.90
2018-05-26T09:34:35.123Z,2.20
2018-05-26T09:37:02.576Z,1.93
2018-05-26T09:39:30.032Z,1.50
2018-05-26T09:41:57.496Z,2.97
2018-05-26T09:44:24.965Z,1.70
2018-05-26T09:46:52.429Z,2.30
2018-05-26T09:49:19.907Z,1.70
2018-05-26T09:51:47.371Z,1.63
2018-05-26T09:54:14.816Z,1.40
2018-05-26T09:56:43.044Z,2.53
2018-05-26T09:59:10.499Z,1.63
2018-05-26T10:01:37.956Z,1.40
2018-05-26T10:04:05.411Z,1.40
2018-05-26T10:06:32.879Z,1.63
2018-05-26T10:09:00.328Z,1.67
2018-05-26T10:11:27.788Z,1.30
2018-05-26T10:13:55.241Z,1.53
2018-05-26T10:16:22.700Z,1.53
2018-05-26T10:18:50.155Z,1.90
2018-05-26T10:21:17.619Z,1.30
2018-05-26T10:23:45.840Z,2.10
2018-05-26T10:26:13.635Z,1.47
2018-05-26T10:28:41.048Z,1.87
2018-05-26T10:31:08.507Z,1.47
2018-05-26T10:33:35.973Z,1.47
2018-05-26T10:36:03.424Z,1.50
2018-05-26T10:38:30.876Z,1.43
2018-05-26T10:40:59.088Z,1.40
2018-05-26T10:43:26.570Z,1.60
2018-05-26T10:46:05.711Z,1.60
2018-05-26T10:48:33.175Z,1.83
2018-05-26T10:51:00.637Z,1.70
2018-05-26T10:53:28.096Z,1.87
2018-05-26T10:55:55.576Z,1.57
2018-05-26T10:58:23.011Z,1.60
2018-05-26T11:00:50.487Z,1.60
2018-05-26T11:03:17.929Z,1.30
2018-05-26T11:05:45.392Z,1.77
2018-05-26T11:08:12.856Z,1.50
2018-05-26T11:10:41.076Z,1.70
2018-05-26T11:13:08.535Z,1.70
2018-05-26T11:15:36.788Z,1.77
2018-05-26T11:18:05.142Z,1.40
2018-05-26T11:20:32.485Z,1.30
2018-05-26T11:22:59.960Z,2.77
2018-05-26T11:25:27.421Z,1.00
2018-05-26T11:27:56.423Z,1.50
2018-05-26T11:30:23.885Z,1.40
2018-05-26T11:32:52.127Z,1.20
2018-05-26T11:35:19.601Z,0.90
2018-05-26T11:37:47.062Z,0.90
2018-05-26T11:40:14.514Z,0.80
2018-05-26T11:42:41.978Z,0.75
2018-05-26T11:45:09.435Z,0.55
2018-05-26T11:47:36.901Z,0.60
2018-05-26T11:50:04.349Z,0.45
2018-05-26T11:52:31.816Z,0.60
2018-05-26T11:54:59.260Z,0.60
2018-05-26T11:57:26.728Z,0.60
2018-05-26T11:59:54.187Z,0.50
2018-05-26T12:02:21.648Z,0.50
2018-05-26T12:04:49.874Z,0.40
2018-05-26T12:07:17.351Z,0.50
2018-05-26T12:09:44.809Z,0.50
2018-05-26T12:12:12.264Z,0.60
2018-05-26T12:14:39.726Z,0.40
2018-05-26T12:17:07.189Z,0.50
2018-05-26T12:19:34.655Z,0.50
2018-05-26T12:22:02.894Z,0.40
2018-05-26T12:24:30.348Z,0.40
2018-05-26T12:26:57.833Z,0.60
2018-05-26T12:29:25.264Z,0.50
2018-05-26T12:31:52.724Z,0.50
2018-05-26T12:34:20.948Z,0.50
2018-05-26T12:36:49.176Z,0.60
2018-05-26T12:39:16.665Z,0.45
2018-05-26T12:41:44.974Z,0.45
2018-05-26T12:44:13.201Z,0.50
2018-05-26T12:46:40.668Z,0.60
2018-05-26T12:49:08.893Z,0.80
2018-05-26T12:51:36.351Z,0.90
2018-05-26T12:54:03.817Z,1.00
2018-05-26T12:56:32.040Z,0.70
2018-05-26T12:58:59.511Z,0.60
2018-05-26T13:01:26.976Z,0.50
2018-05-26T13:03:55.226Z,0.50
2018-05-26T13:06:22.688Z,0.70
2018-05-26T13:08:50.919Z,0.60
2018-05-26T13:11:18.355Z,0.50
2018-05-26T13:13:46.576Z,0.60
2018-05-26T13:16:14.044Z,0.50
2018-05-26T13:18:41.505Z,0.50
2018-05-26T13:21:09.716Z,0.57
2018-05-26T13:23:37.956Z,0.50
2018-05-26T13:26:05.417Z,0.50
2018-05-26T13:28:32.886Z,0.50
2018-05-26T13:31:00.340Z,0.68
2018-05-26T13:33:27.807Z,0.65
2018-05-26T13:35:55.268Z,0.60
2018-05-26T13:38:22.728Z,0.60
2018-05-26T13:40:50.175Z,0.60
2018-05-26T13:43:17.628Z,0.50
2018-05-26T13:45:45.100Z,0.50
2018-05-26T13:48:12.557Z,0.40
2018-05-26T13:50:40.063Z,0.50
2018-05-26T13:53:09.026Z,0.60
2018-05-26T13:55:36.563Z,0.55
2018-05-26T13:58:03.924Z,0.60
2018-05-26T14:00:32.148Z,0.60
2018-05-26T14:02:59.608Z,0.60
2018-05-26T14:05:27.832Z,0.60
2018-05-26T14:07:55.290Z,0.70
2018-05-26T14:10:22.747Z,0.70
2018-05-26T14:12:50.199Z,0.77
2018-05-26T14:15:17.667Z,0.90
2018-05-26T14:17:45.125Z,1.00
2018-05-26T14:20:13.376Z,0.80
2018-05-26T14:22:40.848Z,1.00
2018-05-26T14:25:08.296Z,1.13
2018-05-26T14:27:36.542Z,1.33
2018-05-26T14:30:04.021Z,1.30
2018-05-26T14:32:31.480Z,1.10
2018-05-26T14:34:58.943Z,1.73
2018-05-26T14:37:26.403Z,1.40
2018-05-26T14:39:53.860Z,1.70
2018-05-26T14:42:21.327Z,1.40
2018-05-26T14:44:48.784Z,1.40
2018-05-26T14:47:16.235Z,1.40
2018-05-26T14:49:43.717Z,1.40
2018-05-26T14:52:11.161Z,1.40
2018-05-26T14:54:38.615Z,1.40
2018-05-26T14:57:06.072Z,1.50
2018-05-26T14:59:33.548Z,1.40
2018-05-26T15:02:01.757Z,1.87
2018-05-26T15:04:29.228Z,1.73
2018-05-26T15:06:56.688Z,1.50
2018-05-26T15:09:24.161Z,1.70
2018-05-26T15:11:51.618Z,1.40
2018-05-26T15:14:19.841Z,1.70
2018-05-26T15:16:47.299Z,1.50
2018-05-26T15:19:14.816Z,1.90
2018-05-26T15:21:42.271Z,1.33
2018-05-26T15:24:09.748Z,1.60
2018-05-26T15:26:37.200Z,1.93
2018-05-26T15:29:04.660Z,1.70
2018-05-26T15:31:32.104Z,1.90
2018-05-26T15:33:59.568Z,1.80
2018-05-26T15:36:27.032Z,1.50
2018-05-26T15:38:54.487Z,2.20
2018-05-26T15:41:21.945Z,1.90
2018-05-26T15:43:49.403Z,2.07
2018-05-26T15:46:16.864Z,1.80
2018-05-26T15:48:45.095Z,1.70
2018-05-26T15:51:12.559Z,1.80
2018-05-26T15:53:40.775Z,1.57
2018-05-26T15:56:09.001Z,1.70
2018-05-26T15:58:36.466Z,1.70
2018-05-26T16:01:03.923Z,2.00
2018-05-26T16:03:31.369Z,1.60
2018-05-26T16:05:59.592Z,1.80
2018-05-26T16:08:27.053Z,1.70
2018-05-26T16:10:54.505Z,1.60
2018-05-26T16:13:22.712Z,1.50
2018-05-26T16:15:50.164Z,1.70
2018-05-26T16:18:18.384Z,1.90
2018-05-26T16:20:46.608Z,2.00
2018-05-26T16:23:14.828Z,1.67
2018-05-26T16:25:42.295Z,1.63
2018-05-26T16:28:09.757Z,2.00
2018-05-26T16:30:37.210Z,1.93
2018-05-26T16:33:04.658Z,1.90
2018-05-26T16:35:32.875Z,1.90
2018-05-26T16:38:01.100Z,2.10
2018-05-26T16:40:28.569Z,2.03
2018-05-26T16:42:56.777Z,1.70
2018-05-26T16:45:24.295Z,1.97
2018-05-26T16:47:51.692Z,2.10
2018-05-26T16:50:19.156Z,1.83
2018-05-26T16:52:46.615Z,1.83
2018-05-26T16:55:14.070Z,1.77
2018-05-26T16:57:41.526Z,1.90
2018-05-26T17:00:08.985Z,1.87
2018-05-26T17:02:37.947Z,1.80
2018-05-26T17:05:05.416Z,1.80
2018-05-26T17:07:32.875Z,1.67
2018-05-26T17:10:00.365Z,1.83
2018-05-26T17:12:28.586Z,1.60
2018-05-26T17:14:56.824Z,1.80
2018-05-26T17:17:24.345Z,1.70
2018-05-26T17:19:51.796Z,2.20
2018-05-26T17:22:19.271Z,2.47
2018-05-26T17:24:48.229Z,2.20
2018-05-26T17:27:15.708Z,1.87
2018-05-26T17:29:43.168Z,2.00
2018-05-26T17:32:10.624Z,2.30
2018-05-26T17:34:38.082Z,1.80
2018-05-26T17:37:05.541Z,2.30
2018-05-26T17:39:32.997Z,2.10
2018-05-26T17:42:00.457Z,2.20
2018-05-26T17:44:28.676Z,2.33
2018-05-26T17:46:56.131Z,2.50
2018-05-26T17:49:23.584Z,2.07
2018-05-26T17:51:51.803Z,2.33
2018-05-26T17:54:19.263Z,1.90
2018-05-26T17:56:47.678Z,2.07
2018-05-26T17:59:15.916Z,2.40
2018-05-26T18:01:43.382Z,1.83
2018-05-26T18:04:10.836Z,2.30
2018-05-26T18:06:38.301Z,2.17
2018-05-26T18:09:05.745Z,2.00
2018-05-26T18:11:33.211Z,2.23
2018-05-26T18:14:00.668Z,2.03
2018-05-26T18:16:28.143Z,2.37
2018-05-26T18:18:55.607Z,2.10
2018-05-26T18:21:23.067Z,2.53
2018-05-26T18:23:50.523Z,2.40
2018-05-26T18:26:19.488Z,2.50
2018-05-26T18:28:46.947Z,2.37
2018-05-26T18:31:14.399Z,2.10
2018-05-26T18:33:42.611Z,2.00
2018-05-26T18:36:10.075Z,2.43
2018-05-26T18:38:37.523Z,2.03
2018-05-26T18:41:04.986Z,2.50
2018-05-26T18:43:32.436Z,2.80
2018-05-26T18:45:59.888Z,2.80
2018-05-26T18:48:28.099Z,2.40
2018-05-26T18:50:55.539Z,2.63
2018-05-26T18:53:23.760Z,2.60
2018-05-26T18:55:51.227Z,2.60
2018-05-26T18:58:18.687Z,3.00
2018-05-26T19:00:46.131Z,2.20
2018-05-26T19:03:13.605Z,2.60
2018-05-26T19:05:41.064Z,3.00
2018-05-26T19:08:08.528Z,3.83
2018-05-26T19:10:35.984Z,2.70
2018-05-26T19:13:03.454Z,2.27
2018-05-26T19:15:30.887Z,2.80
2018-05-26T19:17:58.348Z,2.67
2018-05-26T19:20:25.803Z,2.60
2018-05-26T19:22:53.255Z,2.90
2018-05-26T19:25:20.736Z,2.53
2018-05-26T19:27:48.952Z,3.00
2018-05-26T19:30:17.208Z,2.40
2018-05-26T19:32:45.445Z,2.60
2018-05-26T19:35:13.656Z,2.93
2018-05-26T19:37:41.892Z,2.70
2018-05-26T19:40:09.344Z,2.40
2018-05-26T19:42:36.812Z,2.90
2018-05-26T19:45:04.264Z,2.50
2018-05-26T19:47:31.723Z,2.70
2018-05-26T19:49:59.194Z,2.83
2018-05-26T19:52:26.641Z,3.00
2018-05-26T19:54:54.099Z,2.60
2018-05-26T19:57:21.580Z,2.60
2018-05-26T19:59:49.023Z,2.60
2018-05-26T20:02:16.483Z,2.73
2018-05-26T20:04:43.943Z,2.80
2018-05-26T20:07:12.176Z,2.23
2018-05-26T20:09:39.619Z,2.70
2018-05-26T20:12:07.847Z,2.67
2018-05-26T20:14:35.289Z,2.70
2018-05-26T20:17:02.748Z,2.90
2018-05-26T20:19:30.961Z,3.30
2018-05-26T20:21:58.416Z,4.60
2018-05-26T20:24:25.872Z,3.47
2018-05-26T20:26:53.323Z,6.40
2018-05-26T20:29:21.541Z,3.23
2018-05-26T20:31:48.999Z,3.20
2018-05-26T20:34:17.221Z,3.67
2018-05-26T20:36:44.675Z,3.10
2018-05-26T20:39:12.136Z,3.57
2018-05-26T20:41:39.592Z,2.97
2018-05-26T20:44:07.052Z,2.83
2018-05-26T20:46:34.507Z,3.00
2018-05-26T20:49:01.976Z,2.87
2018-05-26T20:51:29.420Z,3.27
2018-05-26T20:53:56.893Z,3.60
2018-05-26T20:56:24.337Z,3.13
2018-05-26T20:58:51.805Z,3.53
2018-05-26T21:01:19.252Z,3.07
2018-05-26T21:03:46.720Z,3.23
2018-05-26T21:06:14.168Z,3.27
2018-05-26T21:08:41.625Z,5.37
2018-05-26T21:11:09.083Z,3.27
2018-05-26T21:13:36.547Z,2.93
2018-05-26T21:16:04.006Z,3.10
2018-05-26T21:18:31.463Z,3.20
2018-05-26T21:20:58.912Z,3.23
2018-05-26T21:23:26.389Z,3.00
2018-05-26T21:25:53.827Z,2.97
2018-05-26T21:28:21.304Z,3.20
2018-05-26T21:30:48.740Z,3.10
2018-05-26T21:33:16.208Z,2.70
2018-05-26T21:35:43.654Z,3.00
2018-05-26T21:38:11.124Z,3.20
2018-05-26T21:40:39.327Z,3.10
2018-05-26T21:43:07.561Z,3.70
2018-05-26T21:45:35.032Z,3.50
2018-05-26T21:48:02.487Z,3.57
2018-05-26T21:50:29.944Z,3.23
2018-05-26T21:52:57.403Z,3.10
2018-05-26T21:55:24.851Z,3.03
2018-05-26T21:57:52.324Z,3.60
2018-05-26T22:00:19.763Z,3.57
2018-05-26T22:02:47.236Z,3.60
2018-05-26T22:05:14.682Z,4.23
2018-05-26T22:07:42.148Z,2.70
2018-05-26T22:10:09.606Z,3.33
2018-05-26T22:12:37.047Z,3.20
2018-05-26T22:15:04.512Z,2.87
2018-05-26T22:17:32.739Z,3.03
2018-05-26T22:20:00.967Z,3.23
2018-05-26T22:22:28.429Z,3.03
2018-05-26T22:24:55.908Z,3.23
2018-05-26T22:27:23.352Z,2.80
2018-05-26T22:29:50.810Z,3.20
2018-05-26T22:32:18.268Z,3.20
2018-05-26T22:34:45.724Z,2.87
2018-05-26T22:37:13.172Z,3.00
2018-05-26T22:39:40.631Z,3.23
2018-05-26T22:42:08.089Z,3.50
2018-05-26T22:44:35.544Z,3.43
2018-05-26T22:47:03.010Z,3.67
2018-05-26T22:49:30.460Z,3.50
2018-05-26T22:51:57.919Z,4.40
2018-05-26T22:54:25.386Z,4.17
2018-05-26T22:56:53.617Z,4.53
2018-05-26T22:59:21.087Z,4.10
2018-05-26T23:01:48.540Z,4.40
2018-05-26T23:04:15.996Z,3.93
2018-05-26T23:06:43.461Z,3.90
2018-05-26T23:09:10.943Z,4.97
2018-05-26T23:11:38.389Z,4.30
2018-05-26T23:14:05.862Z,4.70
2018-05-26T23:16:33.314Z,4.10
2018-05-26T23:19:00.778Z,4.20
2018-05-26T23:21:28.228Z,3.90
2018-05-26T23:23:55.688Z,4.20
2018-05-26T23:26:23.175Z,4.10
2018-05-26T23:28:51.404Z,4.00
2018-05-26T23:31:18.863Z,3.80
2018-05-26T23:33:46.328Z,4.63
2018-05-26T23:36:13.775Z,3.87
2018-05-26T23:38:41.995Z,3.73
2018-05-26T23:41:10.216Z,4.00
2018-05-26T23:43:37.671Z,4.20
2018-05-26T23:46:05.154Z,3.50
2018-05-26T23:48:32.625Z,3.93
2018-05-26T23:51:00.057Z,3.90
2018-05-26T23:53:27.529Z,3.90
2018-05-26T23:55:54.975Z,4.07
2018-05-26T23:58:22.432Z,3.80
